GLO9610 SBEG-SBGR
Flight info
| Callsign | GLO9610 |
|---|---|
| Flight time | N/A |
| Altitude | 37000 |
| Route | ETAXA UZ87 OBLUG UZ42 ZARES |
| Aircraft | B738/M-SDE2E3FGHIRWXY/LB1 |
Departure
| Time | 2026-04-23 03:46 |
|---|---|
| Airport | Eduardo Gomes International Airport (SBEG) |
Arrival
| Time | N/A |
|---|---|
| Airport | São Paulo/Guarulhos–Governor André Franco Montoro International Airport (SBGR) |
| Time | Latitude | Longitude | Altitude | Speed | Heading |
|---|---|---|---|---|---|
| 2026-04-23 03:10 | -3.03277 | -60.04553 | 325 ft | 0 kts | 0° |
| 2026-04-23 03:35 | -3.03289 | -60.04553 | 298 ft | 4 kts | 347° |
| 2026-04-23 03:35 | -3.03306 | -60.04543 | 301 ft | 4 kts | 274° |
| 2026-04-23 03:35 | -3.03303 | -60.04517 | 300 ft | 4 kts | 257° |
| 2026-04-23 03:36 | -3.03300 | -60.04507 | 301 ft | 2 kts | 262° |
| 2026-04-23 03:39 | -3.03302 | -60.04517 | 301 ft | 4 kts | 262° |
| 2026-04-23 03:40 | -3.03308 | -60.04568 | 298 ft | 9 kts | 266° |
| 2026-04-23 03:40 | -3.03309 | -60.04630 | 298 ft | 9 kts | 271° |
| 2026-04-23 03:40 | -3.03305 | -60.04690 | 299 ft | 9 kts | 275° |
| 2026-04-23 03:40 | -3.03330 | -60.04737 | 298 ft | 8 kts | 209° |
| 2026-04-23 03:41 | -3.03373 | -60.04774 | 299 ft | 8 kts | 233° |
| 2026-04-23 03:41 | -3.03408 | -60.04823 | 297 ft | 9 kts | 230° |
| 2026-04-23 03:41 | -3.03458 | -60.04870 | 297 ft | 11 kts | 219° |
| 2026-04-23 03:41 | -3.03519 | -60.04918 | 297 ft | 12 kts | 218° |
| 2026-04-23 03:42 | -3.03568 | -60.04986 | 299 ft | 13 kts | 245° |
| 2026-04-23 03:42 | -3.03598 | -60.05073 | 297 ft | 14 kts | 255° |
| 2026-04-23 03:42 | -3.03625 | -60.05174 | 299 ft | 16 kts | 255° |
| 2026-04-23 03:42 | -3.03655 | -60.05286 | 298 ft | 18 kts | 255° |
| 2026-04-23 03:43 | -3.03680 | -60.05411 | 298 ft | 19 kts | 262° |
| 2026-04-23 03:43 | -3.03689 | -60.05544 | 294 ft | 19 kts | 270° |
| 2026-04-23 03:43 | -3.03690 | -60.05674 | 295 ft | 18 kts | 270° |
| 2026-04-23 03:43 | -3.03690 | -60.05800 | 297 ft | 18 kts | 270° |
| 2026-04-23 03:44 | -3.03691 | -60.05921 | 296 ft | 17 kts | 270° |
| 2026-04-23 03:44 | -3.03691 | -60.06038 | 294 ft | 16 kts | 269° |
| 2026-04-23 03:44 | -3.03698 | -60.06115 | 294 ft | 7 kts | 253° |
| 2026-04-23 03:44 | -3.03727 | -60.06156 | 294 ft | 7 kts | 217° |
| 2026-04-23 03:45 | -3.03773 | -60.06171 | 292 ft | 7 kts | 188° |
| 2026-04-23 03:45 | -3.03821 | -60.06168 | 293 ft | 7 kts | 164° |
| 2026-04-23 03:45 | -3.03853 | -60.06138 | 294 ft | 7 kts | 105° |
| 2026-04-23 03:45 | -3.03855 | -60.06092 | 293 ft | 7 kts | 90° |
| 2026-04-23 03:46 | -3.03855 | -60.05942 | 293 ft | 53 kts | 90° |
| 2026-04-23 03:46 | -3.03857 | -60.05329 | 294 ft | 121 kts | 90° |
| 2026-04-23 03:46 | -3.03864 | -60.04295 | 353 ft | 170 kts | 90° |
| 2026-04-23 03:46 | -3.03881 | -60.03084 | 966 ft | 180 kts | 91° |
| 2026-04-23 03:47 | -3.03904 | -60.01800 | 1576 ft | 194 kts | 91° |
| 2026-04-23 03:47 | -3.03937 | -60.00383 | 2220 ft | 204 kts | 91° |
| 2026-04-23 03:47 | -3.04261 | -59.98995 | 2556 ft | 220 kts | 123° |
| 2026-04-23 03:47 | -3.05438 | -59.97955 | 2783 ft | 235 kts | 150° |
| 2026-04-23 03:48 | -3.06906 | -59.97133 | 3076 ft | 254 kts | 151° |
| 2026-04-23 03:48 | -3.08532 | -59.96199 | 3284 ft | 277 kts | 150° |
| 2026-04-23 03:48 | -3.10169 | -59.95230 | 4156 ft | 272 kts | 149° |
| 2026-04-23 03:48 | -3.11789 | -59.94247 | 4880 ft | 274 kts | 148° |
| 2026-04-23 03:49 | -3.13423 | -59.93236 | 5552 ft | 277 kts | 148° |
| 2026-04-23 03:49 | -3.15063 | -59.92209 | 6247 ft | 279 kts | 148° |
| 2026-04-23 03:49 | -3.16712 | -59.91166 | 6890 ft | 282 kts | 148° |
| 2026-04-23 03:49 | -3.18375 | -59.90107 | 7516 ft | 285 kts | 148° |
| 2026-04-23 03:50 | -3.20050 | -59.89037 | 8165 ft | 287 kts | 147° |
| 2026-04-23 03:50 | -3.21738 | -59.87955 | 8795 ft | 290 kts | 147° |
| 2026-04-23 03:50 | -3.23444 | -59.86860 | 9425 ft | 293 kts | 147° |
| 2026-04-23 03:50 | -3.25163 | -59.85755 | 10057 ft | 295 kts | 147° |
| 2026-04-23 03:51 | -3.26925 | -59.84622 | 10344 ft | 311 kts | 147° |
| 2026-04-23 03:51 | -3.28798 | -59.83416 | 10488 ft | 330 kts | 147° |
| 2026-04-23 03:51 | -3.30770 | -59.82147 | 10834 ft | 339 kts | 147° |
| 2026-04-23 03:51 | -3.32712 | -59.80898 | 11820 ft | 326 kts | 147° |
| 2026-04-23 03:52 | -3.34594 | -59.79687 | 12782 ft | 316 kts | 147° |
| 2026-04-23 03:52 | -3.36437 | -59.78500 | 13541 ft | 316 kts | 147° |
| 2026-04-23 03:52 | -3.38269 | -59.77320 | 14093 ft | 320 kts | 147° |
| 2026-04-23 03:52 | -3.40178 | -59.76090 | 14666 ft | 323 kts | 147° |
| 2026-04-23 03:53 | -3.42069 | -59.74870 | 15270 ft | 324 kts | 146° |
| 2026-04-23 03:53 | -3.43972 | -59.73644 | 15872 ft | 327 kts | 146° |
| 2026-04-23 03:53 | -3.45864 | -59.72424 | 16453 ft | 329 kts | 146° |
| 2026-04-23 03:53 | -3.47797 | -59.71178 | 17035 ft | 332 kts | 146° |
| 2026-04-23 03:54 | -3.49747 | -59.69921 | 17609 ft | 334 kts | 146° |
| 2026-04-23 03:54 | -3.51712 | -59.68654 | 18190 ft | 337 kts | 146° |
| 2026-04-23 03:54 | -3.53697 | -59.67388 | 18686 ft | 340 kts | 148° |
| 2026-04-23 03:54 | -3.55758 | -59.66213 | 19185 ft | 342 kts | 150° |
| 2026-04-23 03:55 | -3.57861 | -59.65087 | 19701 ft | 344 kts | 151° |
| 2026-04-23 03:55 | -3.59980 | -59.63971 | 20224 ft | 345 kts | 150° |
| 2026-04-23 03:55 | -3.62111 | -59.62846 | 20724 ft | 348 kts | 150° |
| 2026-04-23 03:55 | -3.64255 | -59.61708 | 21189 ft | 350 kts | 150° |
| 2026-04-23 03:56 | -3.66411 | -59.60558 | 21673 ft | 352 kts | 150° |
| 2026-04-23 03:56 | -3.68578 | -59.59396 | 22156 ft | 354 kts | 150° |
| 2026-04-23 03:56 | -3.70757 | -59.58226 | 22637 ft | 356 kts | 150° |
| 2026-04-23 03:56 | -3.72949 | -59.57046 | 23100 ft | 359 kts | 150° |
| 2026-04-23 03:57 | -3.75155 | -59.55858 | 23551 ft | 361 kts | 150° |
| 2026-04-23 03:57 | -3.77376 | -59.54661 | 23921 ft | 364 kts | 149° |
| 2026-04-23 03:57 | -3.79611 | -59.53456 | 24295 ft | 366 kts | 149° |
| 2026-04-23 03:57 | -3.81858 | -59.52244 | 24665 ft | 368 kts | 149° |
| 2026-04-23 03:58 | -3.84120 | -59.51025 | 25028 ft | 370 kts | 149° |
| 2026-04-23 03:58 | -3.86395 | -59.49798 | 25398 ft | 373 kts | 149° |
| 2026-04-23 03:58 | -3.88683 | -59.48564 | 25757 ft | 375 kts | 149° |
| 2026-04-23 03:58 | -3.90236 | -59.47727 | 26003 ft | 376 kts | 149° |
| 2026-04-23 03:59 | -3.93299 | -59.46075 | 26469 ft | 379 kts | 149° |
| 2026-04-23 03:59 | -3.95633 | -59.44816 | 26795 ft | 382 kts | 149° |
| 2026-04-23 03:59 | -3.97982 | -59.43548 | 27107 ft | 385 kts | 149° |
| 2026-04-23 03:59 | -4.00346 | -59.42273 | 27455 ft | 387 kts | 149° |
| 2026-04-23 04:00 | -4.02720 | -59.40993 | 27807 ft | 389 kts | 149° |
| 2026-04-23 04:00 | -4.04295 | -59.40143 | 28025 ft | 390 kts | 149° |
| 2026-04-23 04:00 | -4.06695 | -59.38848 | 28350 ft | 392 kts | 149° |
| 2026-04-23 04:00 | -4.09102 | -59.37549 | 28673 ft | 394 kts | 149° |
| 2026-04-23 04:01 | -4.11526 | -59.36241 | 28989 ft | 397 kts | 149° |
| 2026-04-23 04:01 | -4.13961 | -59.34927 | 29311 ft | 398 kts | 149° |
| 2026-04-23 04:01 | -4.16400 | -59.33611 | 29650 ft | 400 kts | 149° |
| 2026-04-23 04:01 | -4.18855 | -59.32287 | 29977 ft | 401 kts | 149° |
| 2026-04-23 04:02 | -4.21322 | -59.30956 | 30235 ft | 404 kts | 149° |
| 2026-04-23 04:02 | -4.23801 | -59.29621 | 30474 ft | 406 kts | 149° |
| 2026-04-23 04:02 | -4.26288 | -59.28280 | 30741 ft | 407 kts | 148° |
| 2026-04-23 04:02 | -4.28781 | -59.26938 | 31007 ft | 408 kts | 148° |
| 2026-04-23 04:03 | -4.31286 | -59.25587 | 31265 ft | 409 kts | 148° |
| 2026-04-23 04:03 | -4.33797 | -59.24234 | 31519 ft | 411 kts | 148° |
| 2026-04-23 04:03 | -4.36315 | -59.22876 | 31761 ft | 412 kts | 148° |
| 2026-04-23 04:03 | -4.38842 | -59.21513 | 32002 ft | 413 kts | 148° |
| 2026-04-23 04:04 | -4.41376 | -59.20146 | 32239 ft | 414 kts | 148° |
| 2026-04-23 04:04 | -4.43919 | -59.18775 | 32470 ft | 416 kts | 148° |
| 2026-04-23 04:04 | -4.46469 | -59.17399 | 32695 ft | 417 kts | 148° |
| 2026-04-23 04:04 | -4.49027 | -59.16019 | 32915 ft | 418 kts | 148° |
| 2026-04-23 04:05 | -4.51592 | -59.14635 | 33138 ft | 419 kts | 148° |
| 2026-04-23 04:05 | -4.54165 | -59.13247 | 33345 ft | 421 kts | 148° |
| 2026-04-23 04:05 | -4.56745 | -59.11854 | 33553 ft | 422 kts | 148° |
| 2026-04-23 04:05 | -4.59332 | -59.10458 | 33770 ft | 423 kts | 149° |
| 2026-04-23 04:06 | -4.61925 | -59.09059 | 34021 ft | 422 kts | 149° |
| 2026-04-23 04:06 | -4.64509 | -59.07665 | 34199 ft | 423 kts | 148° |
| 2026-04-23 04:06 | -4.67106 | -59.06262 | 34352 ft | 425 kts | 148° |
| 2026-04-23 04:06 | -4.69713 | -59.04855 | 34507 ft | 426 kts | 148° |
| 2026-04-23 04:07 | -4.72331 | -59.03442 | 34674 ft | 427 kts | 148° |
| 2026-04-23 04:07 | -4.74948 | -59.02029 | 34864 ft | 427 kts | 148° |
| 2026-04-23 04:07 | -4.77527 | -59.00636 | 35044 ft | 427 kts | 148° |
| 2026-04-23 04:07 | -4.80046 | -58.99276 | 35195 ft | 428 kts | 148° |
| 2026-04-23 04:08 | -4.82679 | -58.97854 | 35315 ft | 430 kts | 148° |
| 2026-04-23 04:08 | -4.85317 | -58.96429 | 35448 ft | 431 kts | 148° |
| 2026-04-23 04:08 | -4.87960 | -58.95001 | 35591 ft | 432 kts | 148° |
| 2026-04-23 04:08 | -4.90606 | -58.93571 | 35736 ft | 433 kts | 148° |
| 2026-04-23 04:09 | -4.93263 | -58.92136 | 35851 ft | 435 kts | 148° |
| 2026-04-23 04:09 | -4.95928 | -58.90696 | 35970 ft | 436 kts | 148° |
| 2026-04-23 04:09 | -4.98598 | -58.89253 | 36131 ft | 436 kts | 148° |
| 2026-04-23 04:09 | -5.01239 | -58.87826 | 36302 ft | 436 kts | 148° |
| 2026-04-23 04:10 | -5.03909 | -58.86383 | 36436 ft | 436 kts | 148° |
| 2026-04-23 04:10 | -5.06585 | -58.84937 | 36548 ft | 438 kts | 148° |
| 2026-04-23 04:10 | -5.09268 | -58.83486 | 36660 ft | 439 kts | 148° |
| 2026-04-23 04:10 | -5.11958 | -58.82032 | 36781 ft | 440 kts | 148° |
| 2026-04-23 04:11 | -5.14652 | -58.80575 | 36901 ft | 440 kts | 148° |
| 2026-04-23 04:11 | -5.17353 | -58.79115 | 36950 ft | 442 kts | 148° |
| 2026-04-23 04:11 | -5.22791 | -58.76173 | 36953 ft | 444 kts | 148° |
| 2026-04-23 04:12 | -5.28230 | -58.73232 | 36964 ft | 444 kts | 148° |
| 2026-04-23 04:12 | -5.33668 | -58.70290 | 36961 ft | 444 kts | 148° |
| 2026-04-23 04:13 | -5.39103 | -58.67349 | 36960 ft | 444 kts | 148° |
| 2026-04-23 04:13 | -5.44535 | -58.64409 | 36964 ft | 443 kts | 148° |
| 2026-04-23 04:14 | -5.49963 | -58.61471 | 36962 ft | 443 kts | 148° |
| 2026-04-23 04:14 | -5.55387 | -58.58534 | 36958 ft | 443 kts | 149° |
| 2026-04-23 04:15 | -5.60771 | -58.55618 | 36968 ft | 443 kts | 149° |
| 2026-04-23 04:16 | -5.68899 | -58.51215 | 36968 ft | 442 kts | 149° |
| 2026-04-23 04:16 | -5.74321 | -58.48277 | 36963 ft | 442 kts | 149° |
| 2026-04-23 04:17 | -5.79737 | -58.45341 | 36966 ft | 442 kts | 148° |
| 2026-04-23 04:17 | -5.85154 | -58.42404 | 36962 ft | 443 kts | 149° |
| 2026-04-23 04:18 | -5.90576 | -58.39464 | 36973 ft | 443 kts | 149° |
| 2026-04-23 04:18 | -5.96006 | -58.36519 | 36974 ft | 444 kts | 149° |
| 2026-04-23 04:19 | -6.01435 | -58.33574 | 36973 ft | 445 kts | 149° |
| 2026-04-23 04:19 | -6.06882 | -58.30618 | 36969 ft | 445 kts | 149° |
| 2026-04-23 04:20 | -6.12337 | -58.27658 | 36974 ft | 446 kts | 149° |
| 2026-04-23 04:20 | -6.17799 | -58.24693 | 36972 ft | 446 kts | 149° |
| 2026-04-23 04:21 | -6.23268 | -58.21723 | 36970 ft | 447 kts | 149° |
| 2026-04-23 04:21 | -6.28740 | -58.18751 | 36965 ft | 447 kts | 149° |
| 2026-04-23 04:22 | -6.34183 | -58.15794 | 36966 ft | 447 kts | 149° |
| 2026-04-23 04:22 | -6.39659 | -58.12819 | 36970 ft | 447 kts | 149° |
| 2026-04-23 04:23 | -6.45135 | -58.09842 | 36969 ft | 447 kts | 149° |
| 2026-04-23 04:23 | -6.50609 | -58.06867 | 36962 ft | 447 kts | 149° |
| 2026-04-23 04:24 | -6.56076 | -58.03894 | 36970 ft | 447 kts | 149° |
| 2026-04-23 04:24 | -6.61540 | -58.00922 | 36969 ft | 446 kts | 149° |
| 2026-04-23 04:25 | -6.66918 | -57.97996 | 36970 ft | 446 kts | 149° |
| 2026-04-23 04:25 | -6.72371 | -57.95029 | 36972 ft | 445 kts | 149° |
| 2026-04-23 04:26 | -6.77817 | -57.92064 | 36968 ft | 445 kts | 149° |
| 2026-04-23 04:26 | -6.83267 | -57.89097 | 36974 ft | 445 kts | 149° |
| 2026-04-23 04:27 | -6.88703 | -57.86136 | 36976 ft | 445 kts | 149° |
| 2026-04-23 04:27 | -6.94149 | -57.83169 | 36976 ft | 445 kts | 149° |
| 2026-04-23 04:28 | -7.02322 | -57.78715 | 36980 ft | 446 kts | 149° |
| 2026-04-23 04:28 | -7.07784 | -57.75738 | 36979 ft | 447 kts | 149° |
| 2026-04-23 04:29 | -7.13253 | -57.72755 | 36976 ft | 447 kts | 149° |
| 2026-04-23 04:29 | -7.18727 | -57.69770 | 36975 ft | 448 kts | 149° |
| 2026-04-23 04:30 | -7.24205 | -57.66781 | 36977 ft | 448 kts | 149° |
| 2026-04-23 04:30 | -7.29684 | -57.63791 | 36968 ft | 448 kts | 149° |
| 2026-04-23 04:31 | -7.35169 | -57.60797 | 36982 ft | 448 kts | 149° |
| 2026-04-23 04:31 | -7.40660 | -57.57799 | 36973 ft | 449 kts | 149° |
| 2026-04-23 04:32 | -7.46118 | -57.54818 | 36982 ft | 450 kts | 149° |
| 2026-04-23 04:32 | -7.51629 | -57.51807 | 36978 ft | 450 kts | 149° |
| 2026-04-23 04:33 | -7.57137 | -57.48796 | 36979 ft | 451 kts | 149° |
| 2026-04-23 04:33 | -7.62651 | -57.45782 | 36979 ft | 451 kts | 149° |
| 2026-04-23 04:34 | -7.68169 | -57.42765 | 36972 ft | 451 kts | 150° |
| 2026-04-23 04:34 | -7.73687 | -57.39747 | 36972 ft | 451 kts | 150° |
| 2026-04-23 04:35 | -7.79209 | -57.36725 | 36981 ft | 451 kts | 150° |
| 2026-04-23 04:35 | -7.84729 | -57.33704 | 36978 ft | 452 kts | 150° |
| 2026-04-23 04:36 | -7.90254 | -57.30680 | 36981 ft | 452 kts | 150° |
| 2026-04-23 04:36 | -7.95780 | -57.27653 | 36977 ft | 452 kts | 150° |
| 2026-04-23 04:37 | -8.01295 | -57.24632 | 36984 ft | 452 kts | 150° |
| 2026-04-23 04:37 | -8.06821 | -57.21604 | 36980 ft | 452 kts | 150° |
| 2026-04-23 04:38 | -8.12344 | -57.18576 | 36980 ft | 452 kts | 150° |
| 2026-04-23 04:38 | -8.17869 | -57.15547 | 36986 ft | 451 kts | 150° |
| 2026-04-23 04:39 | -8.23383 | -57.12522 | 36985 ft | 451 kts | 150° |
| 2026-04-23 04:39 | -8.28894 | -57.09498 | 36977 ft | 451 kts | 149° |
| 2026-04-23 04:40 | -8.34402 | -57.06475 | 36984 ft | 451 kts | 149° |
| 2026-04-23 04:40 | -8.39908 | -57.03452 | 36983 ft | 451 kts | 149° |
| 2026-04-23 04:41 | -8.45415 | -57.00427 | 36988 ft | 451 kts | 149° |
| 2026-04-23 04:41 | -8.50824 | -56.97456 | 36988 ft | 451 kts | 149° |
| 2026-04-23 04:42 | -8.56331 | -56.94429 | 36988 ft | 451 kts | 149° |
| 2026-04-23 04:42 | -8.61839 | -56.91401 | 36986 ft | 451 kts | 149° |
| 2026-04-23 04:43 | -8.67348 | -56.88371 | 36980 ft | 451 kts | 149° |
| 2026-04-23 04:43 | -8.72856 | -56.85341 | 36984 ft | 451 kts | 149° |
| 2026-04-23 04:44 | -8.78365 | -56.82309 | 36973 ft | 451 kts | 149° |
| 2026-04-23 04:44 | -8.83842 | -56.79294 | 36978 ft | 451 kts | 149° |
| 2026-04-23 04:45 | -8.89354 | -56.76258 | 36964 ft | 451 kts | 149° |
| 2026-04-23 04:45 | -8.94872 | -56.73219 | 36978 ft | 452 kts | 149° |
| 2026-04-23 04:46 | -9.00381 | -56.70183 | 36978 ft | 453 kts | 149° |
| 2026-04-23 04:46 | -9.05919 | -56.67129 | 36972 ft | 454 kts | 149° |
| 2026-04-23 04:47 | -9.11468 | -56.64069 | 36976 ft | 455 kts | 149° |
| 2026-04-23 04:47 | -9.17027 | -56.61003 | 36975 ft | 456 kts | 149° |
| 2026-04-23 04:48 | -9.22598 | -56.57928 | 36967 ft | 457 kts | 149° |
| 2026-04-23 04:48 | -9.28178 | -56.54848 | 36974 ft | 457 kts | 149° |
| 2026-04-23 04:49 | -9.32825 | -56.52281 | 36968 ft | 458 kts | 149° |
| 2026-04-23 04:49 | -9.38423 | -56.49188 | 36972 ft | 458 kts | 149° |
| 2026-04-23 04:50 | -9.44023 | -56.46093 | 36971 ft | 459 kts | 149° |
| 2026-04-23 04:50 | -9.49623 | -56.42998 | 36982 ft | 459 kts | 148° |
| 2026-04-23 04:51 | -9.55211 | -56.39907 | 36964 ft | 456 kts | 148° |
| 2026-04-23 04:51 | -9.60772 | -56.36830 | 36967 ft | 454 kts | 148° |
| 2026-04-23 04:52 | -9.66294 | -56.33773 | 36965 ft | 451 kts | 148° |
| 2026-04-23 04:52 | -9.71781 | -56.30735 | 36969 ft | 448 kts | 148° |
| 2026-04-23 04:53 | -9.77238 | -56.27713 | 36967 ft | 446 kts | 148° |
| 2026-04-23 04:53 | -9.82675 | -56.24701 | 36971 ft | 444 kts | 148° |
| 2026-04-23 04:54 | -9.88089 | -56.21699 | 36969 ft | 443 kts | 148° |
| 2026-04-23 04:54 | -9.93503 | -56.18696 | 36969 ft | 444 kts | 148° |
| 2026-04-23 04:55 | -9.98922 | -56.15688 | 36970 ft | 445 kts | 148° |
| 2026-04-23 04:55 | -10.04347 | -56.12676 | 36982 ft | 446 kts | 148° |
| 2026-04-23 04:56 | -10.09794 | -56.09651 | 36966 ft | 447 kts | 148° |
| 2026-04-23 04:56 | -10.15228 | -56.06632 | 36986 ft | 448 kts | 148° |
| 2026-04-23 04:57 | -10.20708 | -56.03586 | 36972 ft | 450 kts | 148° |
| 2026-04-23 04:57 | -10.26199 | -56.00533 | 36972 ft | 450 kts | 148° |
| 2026-04-23 04:58 | -10.31652 | -55.97501 | 36977 ft | 451 kts | 148° |
| 2026-04-23 04:58 | -10.37153 | -55.94440 | 36985 ft | 450 kts | 148° |
| 2026-04-23 04:59 | -10.42643 | -55.91384 | 36970 ft | 449 kts | 148° |
| 2026-04-23 04:59 | -10.48118 | -55.88335 | 36975 ft | 448 kts | 148° |
| 2026-04-23 05:00 | -10.53578 | -55.85293 | 36969 ft | 447 kts | 148° |
| 2026-04-23 05:00 | -10.58984 | -55.82280 | 36975 ft | 446 kts | 148° |
| 2026-04-23 05:01 | -10.64414 | -55.79252 | 36971 ft | 445 kts | 148° |
| 2026-04-23 05:01 | -10.69832 | -55.76230 | 36985 ft | 444 kts | 148° |
| 2026-04-23 05:02 | -10.75245 | -55.73209 | 36969 ft | 444 kts | 148° |
| 2026-04-23 05:02 | -10.80655 | -55.70189 | 36989 ft | 444 kts | 148° |
| 2026-04-23 05:03 | -10.86072 | -55.67163 | 36988 ft | 444 kts | 148° |
| 2026-04-23 05:03 | -10.91485 | -55.64138 | 36967 ft | 444 kts | 148° |
| 2026-04-23 05:04 | -10.96904 | -55.61109 | 36976 ft | 445 kts | 148° |
| 2026-04-23 05:04 | -11.02319 | -55.58081 | 36979 ft | 445 kts | 148° |
| 2026-04-23 05:05 | -11.07752 | -55.55041 | 36977 ft | 446 kts | 148° |
| 2026-04-23 05:05 | -11.13195 | -55.51995 | 36973 ft | 447 kts | 148° |
| 2026-04-23 05:06 | -11.18642 | -55.48944 | 36971 ft | 447 kts | 148° |
| 2026-04-23 05:06 | -11.24098 | -55.45888 | 36981 ft | 447 kts | 148° |
| 2026-04-23 05:07 | -11.29665 | -55.43018 | 36964 ft | 450 kts | 152° |
| 2026-04-23 05:07 | -11.35365 | -55.40375 | 36970 ft | 450 kts | 152° |
| 2026-04-23 05:08 | -11.41065 | -55.37729 | 36972 ft | 450 kts | 152° |
| 2026-04-23 05:08 | -11.46750 | -55.35050 | 36968 ft | 450 kts | 151° |
| 2026-04-23 05:09 | -11.52427 | -55.32359 | 36970 ft | 450 kts | 151° |
| 2026-04-23 05:09 | -11.58068 | -55.29683 | 36967 ft | 450 kts | 151° |
| 2026-04-23 05:10 | -11.63781 | -55.26974 | 36966 ft | 450 kts | 151° |
| 2026-04-23 05:10 | -11.69451 | -55.24283 | 36970 ft | 449 kts | 151° |
| 2026-04-23 05:11 | -11.75118 | -55.21587 | 36969 ft | 449 kts | 150° |
| 2026-04-23 05:11 | -11.80570 | -55.18607 | 36975 ft | 447 kts | 147° |
| 2026-04-23 05:12 | -11.85974 | -55.15467 | 36970 ft | 447 kts | 147° |
| 2026-04-23 05:12 | -11.91386 | -55.12339 | 36977 ft | 447 kts | 147° |
| 2026-04-23 05:13 | -11.96816 | -55.09232 | 36977 ft | 448 kts | 147° |
| 2026-04-23 05:14 | -12.04964 | -55.04586 | 36975 ft | 448 kts | 147° |
| 2026-04-23 05:14 | -12.10414 | -55.01477 | 36985 ft | 448 kts | 147° |
| 2026-04-23 05:15 | -12.15782 | -54.98412 | 36981 ft | 448 kts | 147° |
| 2026-04-23 05:15 | -12.21230 | -54.95300 | 36977 ft | 449 kts | 147° |
| 2026-04-23 05:16 | -12.26678 | -54.92186 | 36977 ft | 449 kts | 147° |
| 2026-04-23 05:16 | -12.32128 | -54.89070 | 36978 ft | 449 kts | 147° |
| 2026-04-23 05:17 | -12.37579 | -54.85951 | 36974 ft | 449 kts | 147° |
| 2026-04-23 05:17 | -12.43030 | -54.82831 | 36984 ft | 449 kts | 147° |
| 2026-04-23 05:18 | -12.48494 | -54.79721 | 36980 ft | 449 kts | 148° |
| 2026-04-23 05:18 | -12.53983 | -54.76657 | 36980 ft | 450 kts | 148° |
| 2026-04-23 05:19 | -12.59476 | -54.73586 | 36983 ft | 450 kts | 148° |
| 2026-04-23 05:19 | -12.64960 | -54.70506 | 36973 ft | 450 kts | 147° |
| 2026-04-23 05:20 | -12.70441 | -54.67410 | 36977 ft | 450 kts | 147° |
| 2026-04-23 05:20 | -12.75910 | -54.64317 | 36974 ft | 449 kts | 147° |
| 2026-04-23 05:21 | -12.81386 | -54.61220 | 36976 ft | 449 kts | 147° |
| 2026-04-23 05:21 | -12.86852 | -54.58129 | 36978 ft | 449 kts | 148° |
| 2026-04-23 05:22 | -12.92319 | -54.55045 | 36974 ft | 448 kts | 148° |
| 2026-04-23 05:22 | -12.97784 | -54.51964 | 36978 ft | 448 kts | 148° |
| 2026-04-23 05:23 | -13.03200 | -54.48909 | 36983 ft | 448 kts | 148° |
| 2026-04-23 05:23 | -13.08663 | -54.45825 | 36978 ft | 448 kts | 148° |
| 2026-04-23 05:24 | -13.14125 | -54.42738 | 36976 ft | 448 kts | 148° |
| 2026-04-23 05:24 | -13.19586 | -54.39651 | 36981 ft | 448 kts | 148° |
| 2026-04-23 05:25 | -13.25046 | -54.36563 | 36983 ft | 448 kts | 148° |
| 2026-04-23 05:25 | -13.30506 | -54.33473 | 36988 ft | 448 kts | 148° |
| 2026-04-23 05:26 | -13.35972 | -54.30378 | 36983 ft | 448 kts | 148° |
| 2026-04-23 05:26 | -13.41434 | -54.27284 | 36993 ft | 448 kts | 148° |
| 2026-04-23 05:27 | -13.46895 | -54.24189 | 36994 ft | 448 kts | 148° |
| 2026-04-23 05:27 | -13.52354 | -54.21093 | 36993 ft | 448 kts | 148° |
| 2026-04-23 05:28 | -13.57815 | -54.17995 | 36993 ft | 448 kts | 148° |
| 2026-04-23 05:28 | -13.63274 | -54.14896 | 36997 ft | 448 kts | 148° |
| 2026-04-23 05:29 | -13.68729 | -54.11798 | 36995 ft | 448 kts | 148° |
| 2026-04-23 05:29 | -13.74182 | -54.08699 | 36999 ft | 448 kts | 148° |
| 2026-04-23 05:30 | -13.79633 | -54.05600 | 37002 ft | 447 kts | 148° |
| 2026-04-23 05:30 | -13.85079 | -54.02502 | 36999 ft | 447 kts | 148° |
| 2026-04-23 05:31 | -13.90448 | -53.99445 | 37003 ft | 447 kts | 148° |
| 2026-04-23 05:31 | -13.95898 | -53.96341 | 36992 ft | 448 kts | 148° |
| 2026-04-23 05:32 | -14.01334 | -53.93244 | 36998 ft | 448 kts | 148° |
| 2026-04-23 05:32 | -14.06783 | -53.90137 | 36995 ft | 448 kts | 148° |
| 2026-04-23 05:33 | -14.12195 | -53.87049 | 36997 ft | 447 kts | 148° |
| 2026-04-23 05:33 | -14.17643 | -53.83940 | 36993 ft | 447 kts | 148° |
| 2026-04-23 05:34 | -14.23085 | -53.80831 | 36998 ft | 447 kts | 148° |
| 2026-04-23 05:34 | -14.28530 | -53.77720 | 36998 ft | 448 kts | 148° |
| 2026-04-23 05:35 | -14.33979 | -53.74604 | 37000 ft | 448 kts | 148° |
| 2026-04-23 05:35 | -14.38546 | -53.71991 | 37002 ft | 448 kts | 148° |
| 2026-04-23 05:36 | -14.44959 | -53.68509 | 36995 ft | 449 kts | 151° |
| 2026-04-23 05:36 | -14.49664 | -53.66131 | 37001 ft | 449 kts | 151° |
| 2026-04-23 05:37 | -14.55253 | -53.63251 | 37005 ft | 449 kts | 150° |
| 2026-04-23 05:37 | -14.60735 | -53.60178 | 37004 ft | 448 kts | 147° |
| 2026-04-23 05:38 | -14.66114 | -53.56930 | 37007 ft | 448 kts | 147° |
| 2026-04-23 05:38 | -14.71468 | -53.53706 | 37002 ft | 448 kts | 147° |
| 2026-04-23 05:39 | -14.76872 | -53.50484 | 36999 ft | 449 kts | 148° |
| 2026-04-23 05:39 | -14.82283 | -53.47267 | 37007 ft | 449 kts | 148° |
| 2026-04-23 05:40 | -14.87698 | -53.44046 | 37002 ft | 449 kts | 148° |
| 2026-04-23 05:40 | -14.93118 | -53.40819 | 37000 ft | 450 kts | 148° |
| 2026-04-23 05:41 | -14.98540 | -53.37587 | 37010 ft | 450 kts | 148° |
| 2026-04-23 05:41 | -15.03972 | -53.34376 | 36999 ft | 451 kts | 149° |
| 2026-04-23 05:42 | -15.09463 | -53.31224 | 37002 ft | 452 kts | 149° |
| 2026-04-23 05:42 | -15.14966 | -53.28073 | 37001 ft | 452 kts | 149° |
| 2026-04-23 05:43 | -15.20469 | -53.24906 | 36998 ft | 453 kts | 149° |
| 2026-04-23 05:43 | -15.25964 | -53.21736 | 36998 ft | 452 kts | 149° |
| 2026-04-23 05:44 | -15.31461 | -53.18562 | 36995 ft | 452 kts | 149° |
| 2026-04-23 05:44 | -15.36951 | -53.15391 | 36997 ft | 452 kts | 149° |
| 2026-04-23 05:45 | -15.42401 | -53.12241 | 36999 ft | 451 kts | 149° |
| 2026-04-23 05:45 | -15.47878 | -53.09074 | 36996 ft | 450 kts | 149° |
| 2026-04-23 05:46 | -15.53345 | -53.05910 | 36986 ft | 450 kts | 149° |
| 2026-04-23 05:46 | -15.58808 | -53.02745 | 36995 ft | 449 kts | 149° |
| 2026-04-23 05:47 | -15.64189 | -52.99624 | 36998 ft | 449 kts | 149° |
| 2026-04-23 05:47 | -15.69644 | -52.96459 | 36991 ft | 449 kts | 149° |
| 2026-04-23 05:48 | -15.75101 | -52.93290 | 36991 ft | 449 kts | 149° |
| 2026-04-23 05:48 | -15.80556 | -52.90122 | 36992 ft | 449 kts | 149° |
| 2026-04-23 05:49 | -15.86017 | -52.86947 | 36995 ft | 450 kts | 149° |
| 2026-04-23 05:49 | -15.91478 | -52.83770 | 36991 ft | 450 kts | 149° |
| 2026-04-23 05:50 | -15.96954 | -52.80583 | 36996 ft | 451 kts | 149° |
| 2026-04-23 05:50 | -16.02427 | -52.77395 | 36990 ft | 452 kts | 149° |
| 2026-04-23 05:51 | -16.07910 | -52.74199 | 37001 ft | 452 kts | 149° |
| 2026-04-23 05:51 | -16.13401 | -52.70997 | 36994 ft | 453 kts | 149° |
| 2026-04-23 05:52 | -16.18898 | -52.67789 | 36998 ft | 453 kts | 149° |
| 2026-04-23 05:52 | -16.24401 | -52.64576 | 36996 ft | 454 kts | 149° |
| 2026-04-23 05:53 | -16.29905 | -52.61360 | 37002 ft | 454 kts | 150° |
| 2026-04-23 05:53 | -16.35411 | -52.58140 | 37004 ft | 454 kts | 150° |
| 2026-04-23 05:54 | -16.40919 | -52.54918 | 37006 ft | 454 kts | 150° |
| 2026-04-23 05:54 | -16.46424 | -52.51695 | 37014 ft | 454 kts | 150° |
| 2026-04-23 05:55 | -16.51925 | -52.48471 | 37008 ft | 454 kts | 150° |
| 2026-04-23 05:55 | -16.57390 | -52.45268 | 37016 ft | 453 kts | 150° |
| 2026-04-23 05:56 | -16.62880 | -52.42046 | 37020 ft | 453 kts | 150° |
| 2026-04-23 05:56 | -16.68366 | -52.38830 | 37019 ft | 452 kts | 150° |
| 2026-04-23 05:57 | -16.73848 | -52.35622 | 37018 ft | 452 kts | 150° |
| 2026-04-23 05:57 | -16.79326 | -52.32413 | 37016 ft | 451 kts | 150° |
| 2026-04-23 05:58 | -16.84796 | -52.29206 | 37029 ft | 451 kts | 150° |
| 2026-04-23 05:58 | -16.90266 | -52.25996 | 37038 ft | 451 kts | 150° |
| 2026-04-23 05:59 | -16.95732 | -52.22785 | 37031 ft | 451 kts | 150° |
| 2026-04-23 05:59 | -17.01189 | -52.19578 | 37037 ft | 451 kts | 150° |
| 2026-04-23 06:00 | -17.06654 | -52.16368 | 37045 ft | 451 kts | 151° |
| 2026-04-23 06:00 | -17.12137 | -52.13189 | 37052 ft | 451 kts | 151° |
| 2026-04-23 06:01 | -17.17627 | -52.10020 | 37049 ft | 451 kts | 151° |
| 2026-04-23 06:01 | -17.23122 | -52.06839 | 37054 ft | 451 kts | 151° |
| 2026-04-23 06:02 | -17.28616 | -52.03653 | 37062 ft | 452 kts | 152° |
| 2026-04-23 06:02 | -17.34114 | -52.00462 | 37057 ft | 452 kts | 151° |
| 2026-04-23 06:03 | -17.39531 | -51.97315 | 37063 ft | 453 kts | 151° |
| 2026-04-23 06:03 | -17.45040 | -51.94112 | 37059 ft | 453 kts | 151° |
| 2026-04-23 06:04 | -17.50552 | -51.90906 | 37053 ft | 453 kts | 152° |
| 2026-04-23 06:04 | -17.56068 | -51.87695 | 37059 ft | 454 kts | 152° |
| 2026-04-23 06:05 | -17.61583 | -51.84482 | 37059 ft | 454 kts | 152° |
| 2026-04-23 06:05 | -17.67099 | -51.81267 | 37060 ft | 454 kts | 152° |
| 2026-04-23 06:06 | -17.72575 | -51.78072 | 37067 ft | 453 kts | 152° |
| 2026-04-23 06:06 | -17.78093 | -51.74851 | 37059 ft | 453 kts | 152° |
| 2026-04-23 06:07 | -17.83603 | -51.71632 | 37057 ft | 453 kts | 152° |
| 2026-04-23 06:07 | -17.89104 | -51.68416 | 37060 ft | 452 kts | 152° |
| 2026-04-23 06:08 | -17.94599 | -51.65201 | 37059 ft | 452 kts | 152° |
| 2026-04-23 06:08 | -18.00082 | -51.61991 | 37053 ft | 451 kts | 152° |
| 2026-04-23 06:09 | -18.05565 | -51.58778 | 37054 ft | 451 kts | 152° |
| 2026-04-23 06:09 | -18.11042 | -51.55567 | 37056 ft | 451 kts | 152° |
| 2026-04-23 06:10 | -18.16518 | -51.52354 | 37043 ft | 450 kts | 152° |
| 2026-04-23 06:10 | -18.21985 | -51.49143 | 37047 ft | 450 kts | 152° |
| 2026-04-23 06:11 | -18.27440 | -51.45923 | 37050 ft | 449 kts | 151° |
| 2026-04-23 06:11 | -18.32835 | -51.42595 | 37047 ft | 449 kts | 150° |
| 2026-04-23 06:12 | -18.38218 | -51.39248 | 37049 ft | 449 kts | 150° |
| 2026-04-23 06:12 | -18.46303 | -51.34249 | 37040 ft | 449 kts | 151° |
| 2026-04-23 06:13 | -18.51693 | -51.30916 | 37043 ft | 449 kts | 151° |
| 2026-04-23 06:13 | -18.57082 | -51.27578 | 37033 ft | 449 kts | 151° |
| 2026-04-23 06:14 | -18.62470 | -51.24237 | 37040 ft | 449 kts | 151° |
| 2026-04-23 06:14 | -18.67856 | -51.20893 | 37031 ft | 449 kts | 151° |
| 2026-04-23 06:15 | -18.73242 | -51.17548 | 37035 ft | 449 kts | 151° |
| 2026-04-23 06:15 | -18.78628 | -51.14199 | 37034 ft | 450 kts | 151° |
| 2026-04-23 06:16 | -18.83986 | -51.10866 | 37036 ft | 450 kts | 151° |
| 2026-04-23 06:16 | -18.89417 | -51.07485 | 37033 ft | 450 kts | 151° |
| 2026-04-23 06:17 | -18.94815 | -51.04121 | 37030 ft | 451 kts | 151° |
| 2026-04-23 06:17 | -19.00206 | -51.00760 | 37029 ft | 451 kts | 151° |
| 2026-04-23 06:18 | -19.05506 | -50.97371 | 37032 ft | 452 kts | 150° |
| 2026-04-23 06:18 | -19.10836 | -50.93857 | 37030 ft | 452 kts | 149° |
| 2026-04-23 06:19 | -19.16181 | -50.90331 | 37027 ft | 453 kts | 149° |
| 2026-04-23 06:19 | -19.21494 | -50.86840 | 37036 ft | 453 kts | 150° |
| 2026-04-23 06:20 | -19.26848 | -50.83325 | 37028 ft | 453 kts | 150° |
| 2026-04-23 06:20 | -19.32206 | -50.79805 | 37033 ft | 453 kts | 150° |
| 2026-04-23 06:21 | -19.37563 | -50.76283 | 37031 ft | 453 kts | 150° |
| 2026-04-23 06:21 | -19.42920 | -50.72757 | 37029 ft | 453 kts | 150° |
| 2026-04-23 06:22 | -19.48276 | -50.69230 | 37033 ft | 453 kts | 150° |
| 2026-04-23 06:22 | -19.53629 | -50.65702 | 37032 ft | 453 kts | 150° |
| 2026-04-23 06:23 | -19.58976 | -50.62173 | 37035 ft | 453 kts | 150° |
| 2026-04-23 06:23 | -19.63421 | -50.59239 | 37026 ft | 453 kts | 150° |
| 2026-04-23 06:24 | -19.68772 | -50.55727 | 37026 ft | 452 kts | 150° |
| 2026-04-23 06:24 | -19.74151 | -50.52265 | 37030 ft | 452 kts | 150° |
| 2026-04-23 06:25 | -19.79534 | -50.48803 | 37030 ft | 452 kts | 150° |
| 2026-04-23 06:25 | -19.84907 | -50.45335 | 37029 ft | 452 kts | 151° |
| 2026-04-23 06:26 | -19.90276 | -50.41863 | 37033 ft | 452 kts | 150° |
| 2026-04-23 06:26 | -19.95642 | -50.38389 | 37026 ft | 452 kts | 150° |
| 2026-04-23 06:27 | -20.01002 | -50.34916 | 37032 ft | 451 kts | 150° |
| 2026-04-23 06:27 | -20.06366 | -50.31438 | 37028 ft | 451 kts | 150° |
| 2026-04-23 06:28 | -20.11727 | -50.27961 | 37031 ft | 451 kts | 151° |
| 2026-04-23 06:28 | -20.17174 | -50.24660 | 37038 ft | 451 kts | 153° |
| 2026-04-23 06:29 | -20.22678 | -50.21452 | 37035 ft | 451 kts | 153° |
| 2026-04-23 06:29 | -20.28181 | -50.18225 | 37042 ft | 451 kts | 153° |
| 2026-04-23 06:30 | -20.33659 | -50.14983 | 37034 ft | 451 kts | 153° |
| 2026-04-23 06:30 | -20.39144 | -50.11722 | 37041 ft | 451 kts | 153° |
| 2026-04-23 06:31 | -20.44622 | -50.08461 | 37050 ft | 451 kts | 153° |
| 2026-04-23 06:31 | -20.50100 | -50.05198 | 37041 ft | 451 kts | 153° |
| 2026-04-23 06:32 | -20.55545 | -50.01952 | 37043 ft | 451 kts | 153° |
| 2026-04-23 06:32 | -20.60954 | -49.98726 | 37044 ft | 451 kts | 153° |
| 2026-04-23 06:33 | -20.66433 | -49.95455 | 37036 ft | 451 kts | 153° |
| 2026-04-23 06:33 | -20.71915 | -49.92180 | 37043 ft | 451 kts | 153° |
| 2026-04-23 06:34 | -20.77396 | -49.88903 | 37048 ft | 452 kts | 153° |
| 2026-04-23 06:34 | -20.82881 | -49.85620 | 37045 ft | 452 kts | 153° |
| 2026-04-23 06:35 | -20.88362 | -49.82337 | 37046 ft | 452 kts | 153° |
| 2026-04-23 06:35 | -20.93848 | -49.79047 | 37046 ft | 452 kts | 153° |
| 2026-04-23 06:36 | -20.99331 | -49.75758 | 37054 ft | 452 kts | 153° |
| 2026-04-23 06:36 | -21.04817 | -49.72464 | 37049 ft | 452 kts | 153° |
| 2026-04-23 06:37 | -21.10310 | -49.69163 | 37051 ft | 453 kts | 153° |
| 2026-04-23 06:37 | -21.15805 | -49.65857 | 37048 ft | 453 kts | 153° |
| 2026-04-23 06:38 | -21.21302 | -49.62548 | 37052 ft | 453 kts | 153° |
| 2026-04-23 06:38 | -21.26806 | -49.59231 | 37045 ft | 454 kts | 153° |
| 2026-04-23 06:39 | -21.32304 | -49.55915 | 37055 ft | 454 kts | 153° |
| 2026-04-23 06:39 | -21.37773 | -49.52613 | 37050 ft | 454 kts | 153° |
| 2026-04-23 06:40 | -21.43279 | -49.49287 | 37054 ft | 454 kts | 153° |
| 2026-04-23 06:40 | -21.48828 | -49.45932 | 37058 ft | 454 kts | 153° |
| 2026-04-23 06:41 | -21.54299 | -49.42621 | 37057 ft | 454 kts | 153° |
| 2026-04-23 06:41 | -21.59807 | -49.39284 | 37061 ft | 455 kts | 153° |
| 2026-04-23 06:42 | -21.65318 | -49.35943 | 37070 ft | 455 kts | 153° |
| 2026-04-23 06:42 | -21.70833 | -49.32596 | 37065 ft | 455 kts | 153° |
| 2026-04-23 06:43 | -21.76346 | -49.29248 | 37069 ft | 455 kts | 153° |
| 2026-04-23 06:43 | -21.81868 | -49.25891 | 37069 ft | 456 kts | 154° |
| 2026-04-23 06:44 | -21.87388 | -49.22532 | 37075 ft | 456 kts | 154° |
| 2026-04-23 06:44 | -21.92916 | -49.19165 | 37074 ft | 457 kts | 154° |
| 2026-04-23 06:45 | -21.98443 | -49.15796 | 37082 ft | 457 kts | 154° |
| 2026-04-23 06:45 | -22.03970 | -49.12423 | 37073 ft | 457 kts | 154° |
| 2026-04-23 06:46 | -22.09428 | -49.08892 | 37072 ft | 460 kts | 146° |
| 2026-04-23 06:46 | -22.13990 | -49.04003 | 37091 ft | 465 kts | 133° |
| 2026-04-23 06:47 | -22.18129 | -48.98768 | 37081 ft | 465 kts | 134° |
| 2026-04-23 06:47 | -22.22376 | -48.93504 | 37085 ft | 465 kts | 134° |
| 2026-04-23 06:48 | -22.26653 | -48.88268 | 37084 ft | 465 kts | 134° |
| 2026-04-23 06:48 | -22.30938 | -48.83044 | 37092 ft | 465 kts | 134° |
| 2026-04-23 06:49 | -22.35217 | -48.77802 | 37096 ft | 465 kts | 134° |
| 2026-04-23 06:49 | -22.39482 | -48.72552 | 37090 ft | 465 kts | 134° |
| 2026-04-23 06:50 | -22.43748 | -48.67297 | 37099 ft | 465 kts | 134° |
| 2026-04-23 06:50 | -22.47987 | -48.62073 | 37097 ft | 465 kts | 134° |
| 2026-04-23 06:51 | -22.52257 | -48.56805 | 37102 ft | 466 kts | 134° |
| 2026-04-23 06:51 | -22.56523 | -48.51536 | 37095 ft | 461 kts | 134° |
| 2026-04-23 06:52 | -22.58602 | -48.48964 | 37084 ft | 447 kts | 134° |
| 2026-04-23 06:52 | -22.60443 | -48.46310 | 37092 ft | 436 kts | 124° |
| 2026-04-23 06:52 | -22.61859 | -48.43457 | 37080 ft | 425 kts | 115° |
| 2026-04-23 06:52 | -22.62847 | -48.40489 | 37117 ft | 416 kts | 111° |
| 2026-04-23 06:53 | -22.64690 | -48.34493 | 37128 ft | 424 kts | 111° |
| 2026-04-23 06:53 | -22.66595 | -48.28372 | 37130 ft | 434 kts | 111° |
| 2026-04-23 06:54 | -22.68565 | -48.22123 | 37117 ft | 442 kts | 111° |
| 2026-04-23 06:54 | -22.70563 | -48.15797 | 37117 ft | 445 kts | 111° |
| 2026-04-23 06:55 | -22.72544 | -48.09507 | 37102 ft | 436 kts | 111° |
| 2026-04-23 06:55 | -22.74471 | -48.03314 | 37112 ft | 434 kts | 110° |
| 2026-04-23 06:56 | -22.76166 | -47.97129 | 37118 ft | 434 kts | 109° |
| 2026-04-23 06:56 | -22.78507 | -47.91162 | 37127 ft | 428 kts | 123° |
| 2026-04-23 06:57 | -22.81431 | -47.85526 | 37107 ft | 430 kts | 122° |
| 2026-04-23 06:57 | -22.84225 | -47.79789 | 37117 ft | 431 kts | 121° |
| 2026-04-23 06:58 | -22.86994 | -47.74020 | 37118 ft | 432 kts | 121° |
| 2026-04-23 06:58 | -22.89773 | -47.68236 | 37116 ft | 433 kts | 121° |
| 2026-04-23 06:59 | -22.92558 | -47.62443 | 37117 ft | 433 kts | 121° |
| 2026-04-23 06:59 | -22.95346 | -47.56640 | 37113 ft | 434 kts | 121° |
| 2026-04-23 07:00 | -22.98137 | -47.50822 | 37119 ft | 435 kts | 121° |
| 2026-04-23 07:00 | -23.00928 | -47.45001 | 37123 ft | 435 kts | 121° |
| 2026-04-23 07:01 | -23.01399 | -47.44018 | 37120 ft | 435 kts | 121° |